Time;durP1;ratioP1;P1;durP2;ratioP2;P2;SDS_P1;SDS_P2;PMS_P1;PMS_P2;Temp;Humidity;BMP_temperature;BMP_pressure;BME280_temperature;BME280_humidity;BME280_pressure;Samples;Min_cycle;Max_cycle;Signal;HPM_P1;HPM_P2
2022/11/07 00:01:09;;;;;;;17.00;10.50;;;7.20;99.90;;;;;;5051131;28;20428;-69
2022/11/07 00:03:36;;;;;;;13.27;9.53;;;7.20;99.90;;;;;;5051213;28;20479;-69
2022/11/07 00:06:02;;;;;;;13.90;8.63;;;7.20;99.90;;;;;;5062169;28;20424;-69
2022/11/07 00:08:30;;;;;;;17.43;11.00;;;7.20;99.90;;;;;;5071181;28;20436;-70
2022/11/07 00:10:57;;;;;;;13.93;9.97;;;7.20;99.90;;;;;;5071141;28;20409;-69
2022/11/07 00:13:22;;;;;;;21.63;9.97;;;7.20;99.90;;;;;;5068926;28;20400;-69
2022/11/07 00:15:48;;;;;;;14.10;10.73;;;7.30;99.90;;;;;;5050422;28;20925;-69
2022/11/07 00:18:13;;;;;;;17.13;11.93;;;7.30;99.90;;;;;;5050685;28;20198;-68
2022/11/07 00:20:39;;;;;;;13.80;9.17;;;7.30;99.90;;;;;;5050814;28;20171;-69
2022/11/07 00:23:04;;;;;;;12.20;8.80;;;7.40;99.90;;;;;;5050722;28;20249;-69
2022/11/07 00:25:30;;;;;;;11.67;8.33;;;7.40;99.90;;;;;;5050552;28;20174;-69
2022/11/07 00:27:55;;;;;;;12.53;9.57;;;7.40;99.90;;;;;;5054024;28;20229;-69
2022/11/07 00:30:21;;;;;;;13.63;9.70;;;7.40;99.90;;;;;;5057294;28;20209;-69
2022/11/07 00:32:46;;;;;;;17.00;11.13;;;7.40;99.90;;;;;;5055562;28;20175;-69
2022/11/07 00:35:12;;;;;;;13.23;9.40;;;7.40;99.90;;;;;;5057338;28;20511;-69
2022/11/07 00:37:37;;;;;;;18.17;9.73;;;7.40;99.90;;;;;;5057270;28;20657;-70
2022/11/07 00:40:03;;;;;;;12.57;8.80;;;7.40;99.90;;;;;;5057396;28;20649;-70
2022/11/07 00:42:29;;;;;;;11.83;8.60;;;7.40;99.90;;;;;;5049936;28;20263;-70
2022/11/07 00:44:54;;;;;;;14.67;8.83;;;7.40;99.90;;;;;;5077178;28;20666;-70
2022/11/07 00:47:20;;;;;;;13.33;8.97;;;7.40;99.90;;;;;;5066459;28;20665;-69
2022/11/07 00:49:45;;;;;;;15.50;9.50;;;7.40;99.90;;;;;;5057686;28;20167;-70
2022/11/07 00:52:11;;;;;;;13.37;8.83;;;7.40;99.90;;;;;;5057197;28;20167;-70
2022/11/07 00:54:36;;;;;;;16.57;10.07;;;7.40;99.90;;;;;;5057235;28;20388;-69
2022/11/07 00:57:02;;;;;;;13.10;8.60;;;7.40;99.90;;;;;;5057745;28;20187;-69
2022/11/07 00:59:27;;;;;;;18.00;9.97;;;7.40;99.90;;;;;;5057375;28;20167;-69
2022/11/07 01:01:53;;;;;;;12.00;8.23;;;7.40;99.90;;;;;;5057165;28;20170;-69
2022/11/07 01:07:02;;;;;;;11.87;8.60;;;7.40;99.90;;;;;;5056927;28;20300;-69
2022/11/07 01:09:28;;;;;;;11.90;10.00;;;7.50;99.90;;;;;;5057195;28;20434;-69
2022/11/07 01:11:54;;;;;;;11.53;9.30;;;7.50;99.90;;;;;;5057065;28;20201;-70
2022/11/07 01:14:21;;;;;;;12.57;9.53;;;7.50;99.90;;;;;;5058051;28;20270;-69
2022/11/07 01:16:47;;;;;;;13.50;8.90;;;7.50;99.90;;;;;;5056959;28;20169;-69
2022/11/07 01:19:12;;;;;;;13.33;8.33;;;7.60;99.90;;;;;;5057282;28;20484;-69
2022/11/07 01:21:39;;;;;;;11.90;8.77;;;7.60;99.90;;;;;;5037375;28;20429;-69
2022/11/07 01:24:07;;;;;;;11.60;8.27;;;7.60;99.90;;;;;;5055952;28;20195;-69
2022/11/07 01:26:32;;;;;;;15.60;8.60;;;7.60;99.90;;;;;;5055331;28;20500;-69
2022/11/07 01:28:58;;;;;;;12.80;8.70;;;7.60;99.90;;;;;;5057001;28;20450;-69
2022/11/07 01:31:24;;;;;;;13.10;8.50;;;7.60;99.90;;;;;;5057310;28;20179;-69
2022/11/07 01:33:49;;;;;;;12.00;8.23;;;7.60;99.90;;;;;;5039110;28;20174;-69
2022/11/07 01:36:16;;;;;;;11.70;8.27;;;7.60;99.90;;;;;;5056873;28;20199;-69
2022/11/07 01:38:47;;;;;;;13.53;9.57;;;7.60;99.90;;;;;;5055667;28;20187;-69
2022/11/07 01:41:23;;;;;;;14.73;8.77;;;7.70;99.90;;;;;;5053702;28;20888;-70
2022/11/07 01:44:06;;;;;;;12.67;7.83;;;7.60;99.90;;;;;;5045835;28;20465;-70
2022/11/07 01:46:39;;;;;;;11.50;8.70;;;7.60;99.90;;;;;;5035746;28;20416;-68
2022/11/07 01:49:12;;;;;;;10.50;7.60;;;7.70;99.90;;;;;;5053870;28;20413;-70
2022/11/07 01:52:03;;;;;;;10.40;7.67;;;7.60;99.90;;;;;;5053814;28;20892;-69
2022/11/07 01:54:33;;;;;;;14.73;9.50;;;7.60;99.90;;;;;;5017308;28;20971;-69
2022/11/07 01:57:05;;;;;;;14.03;8.70;;;7.60;99.90;;;;;;5053652;28;20414;-68
2022/11/07 01:59:32;;;;;;;12.63;9.23;;;7.60;99.90;;;;;;5051825;28;20946;-69
2022/11/07 02:01:58;;;;;;;12.13;8.13;;;7.50;99.90;;;;;;5053757;28;20425;-69
2022/11/07 02:04:27;;;;;;;10.00;7.70;;;7.50;99.90;;;;;;5053555;28;20786;-69
2022/11/07 02:07:12;;;;;;;14.83;9.17;;;7.50;99.90;;;;;;5053026;28;20171;-69
2022/11/07 02:09:38;;;;;;;12.57;8.23;;;7.50;99.90;;;;;;5053253;28;20426;-69
2022/11/07 02:12:04;;;;;;;14.47;9.13;;;7.60;99.90;;;;;;5052999;28;20405;-69
2022/11/07 02:14:30;;;;;;;12.50;7.77;;;7.60;99.90;;;;;;5051068;28;20812;-69
2022/11/07 02:16:55;;;;;;;13.27;8.73;;;7.60;99.90;;;;;;5052826;28;20290;-69
2022/11/07 02:19:48;;;;;;;18.00;8.80;;;7.60;99.90;;;;;;5053166;28;20184;-69
2022/11/07 02:22:19;;;;;;;11.07;8.77;;;7.60;99.90;;;;;;5053061;28;20552;-70
2022/11/07 02:24:48;;;;;;;13.27;9.67;;;7.60;99.90;;;;;;5052916;28;20460;-68
2022/11/07 02:27:17;;;;;;;10.77;7.80;;;7.60;99.90;;;;;;5051343;28;20441;-69
2022/11/07 02:29:47;;;;;;;10.90;8.50;;;7.60;99.90;;;;;;5053027;28;20407;-70
2022/11/07 02:32:12;;;;;;;14.40;9.80;;;7.60;99.90;;;;;;5032324;28;20798;-70
2022/11/07 02:34:38;;;;;;;13.33;8.40;;;7.70;99.90;;;;;;5032633;28;20417;-71
2022/11/07 02:37:21;;;;;;;17.53;9.40;;;7.70;99.90;;;;;;5033098;28;20199;-69
2022/11/07 02:39:47;;;;;;;11.73;8.03;;;7.70;99.90;;;;;;5032754;28;20533;-68
2022/11/07 02:42:12;;;;;;;11.80;8.53;;;7.70;99.90;;;;;;5049157;28;20548;-69
2022/11/07 02:44:38;;;;;;;13.90;9.47;;;7.70;99.90;;;;;;5072474;28;20638;-68
2022/11/07 02:47:03;;;;;;;13.07;9.37;;;7.70;99.90;;;;;;5065971;28;20195;-69
2022/11/07 02:49:29;;;;;;;12.47;7.63;;;7.70;99.90;;;;;;5052385;28;20250;-70
2022/11/07 02:51:54;;;;;;;12.43;8.10;;;7.80;99.90;;;;;;5052136;28;20202;-70
2022/11/07 02:54:20;;;;;;;10.73;8.07;;;7.80;99.90;;;;;;5052282;28;20168;-69
2022/11/07 02:56:45;;;;;;;10.77;8.33;;;7.80;99.90;;;;;;5050100;28;20184;-70
2022/11/07 02:59:11;;;;;;;9.27;7.00;;;7.80;99.90;;;;;;5052293;28;20168;-69
2022/11/07 03:01:36;;;;;;;10.77;7.20;;;7.80;99.90;;;;;;5052648;28;20266;-69
2022/11/07 03:04:02;;;;;;;9.03;6.60;;;7.90;99.90;;;;;;5052166;28;20199;-69
2022/11/07 03:06:27;;;;;;;10.60;7.60;;;7.90;99.90;;;;;;5051994;28;20168;-69
2022/11/07 03:08:53;;;;;;;11.17;7.77;;;7.90;99.90;;;;;;5052054;28;20234;-69
2022/11/07 03:11:18;;;;;;;11.37;8.10;;;8.00;99.90;;;;;;5052066;28;20241;-69
2022/11/07 03:13:49;;;;;;;11.80;8.43;;;8.00;99.90;;;;;;5049945;28;20211;-68
2022/11/07 03:16:16;;;;;;;8.03;6.57;;;8.10;99.90;;;;;;5051657;28;20171;-68
2022/11/07 03:18:42;;;;;;;10.50;7.57;;;8.20;99.90;;;;;;5033253;28;20458;-69
2022/11/07 03:21:07;;;;;;;8.57;6.73;;;8.20;99.90;;;;;;5051926;28;20840;-69
2022/11/07 03:23:34;;;;;;;7.63;5.83;;;8.20;99.90;;;;;;5051518;28;20191;-68
2022/11/07 03:25:59;;;;;;;10.93;7.10;;;8.30;99.90;;;;;;5051474;28;20169;-68
2022/11/07 03:28:25;;;;;;;8.80;7.27;;;8.30;99.90;;;;;;5051519;28;20417;-68
2022/11/07 03:30:51;;;;;;;10.47;7.57;;;8.30;99.90;;;;;;5049710;28;20171;-70
2022/11/07 03:33:17;;;;;;;9.57;6.90;;;8.40;99.90;;;;;;5051399;28;20247;-69
2022/11/07 03:35:42;;;;;;;6.50;5.20;;;8.40;99.90;;;;;;5051202;28;20173;-68
2022/11/07 03:38:09;;;;;;;9.10;6.33;;;8.50;99.90;;;;;;5051344;28;20679;-68
2022/11/07 03:40:35;;;;;;;9.10;6.70;;;8.50;99.90;;;;;;5051367;28;20171;-68
2022/11/07 03:43:00;;;;;;;9.57;6.20;;;8.50;99.90;;;;;;5066105;28;20773;-70
2022/11/07 03:45:26;;;;;;;11.37;7.77;;;8.50;99.90;;;;;;5065837;28;20185;-70
2022/11/07 03:47:51;;;;;;;8.97;6.40;;;8.60;99.90;;;;;;5051413;28;20189;-70
2022/11/07 03:50:19;;;;;;;8.50;6.23;;;8.60;99.90;;;;;;5051457;28;20164;-70
2022/11/07 03:52:45;;;;;;;8.30;5.80;;;8.60;99.90;;;;;;5051333;28;20169;-69
2022/11/07 03:55:14;;;;;;;7.90;5.30;;;8.70;99.90;;;;;;5051015;28;20493;-69
2022/11/07 03:57:40;;;;;;;9.93;6.43;;;8.70;99.90;;;;;;5050991;28;20520;-68
2022/11/07 04:00:06;;;;;;;9.00;6.83;;;8.70;99.90;;;;;;5033180;28;20517;-69
2022/11/07 04:02:32;;;;;;;7.93;6.10;;;8.70;99.90;;;;;;5050438;28;20402;-70
2022/11/07 04:04:57;;;;;;;6.13;5.50;;;8.70;99.90;;;;;;5049057;28;20969;-70
2022/11/07 04:07:23;;;;;;;8.33;6.03;;;8.70;99.90;;;;;;5033083;28;20205;-70
2022/11/07 04:09:48;;;;;;;9.10;6.20;;;8.70;99.90;;;;;;5051216;28;20180;-69
2022/11/07 04:17:42;;;;;;;8.67;6.70;;;8.80;99.90;;;;;;5052267;28;20474;-70
2022/11/07 04:20:08;;;;;;;7.03;5.30;;;8.80;99.90;;;;;;5048937;28;20780;-70
2022/11/07 04:22:34;;;;;;;8.07;5.37;;;8.80;99.90;;;;;;5050806;28;20177;-70
2022/11/07 04:25:00;;;;;;;7.60;5.90;;;8.80;99.90;;;;;;5050524;28;20465;-69
2022/11/07 04:27:43;;;;;;;11.20;6.10;;;8.80;99.90;;;;;;5050714;28;20424;-69
2022/11/07 04:30:18;;;;;;;10.20;6.90;;;8.80;99.90;;;;;;5050803;28;20175;-69
2022/11/07 04:32:48;;;;;;;9.37;6.50;;;8.80;99.90;;;;;;5066704;22;21041;-64
2022/11/07 04:35:15;;;;;;;6.83;5.50;;;8.90;99.90;;;;;;5027138;28;20474;-65
2022/11/07 04:37:41;;;;;;;8.33;5.00;;;8.90;99.90;;;;;;5032046;28;20422;-66
2022/11/07 04:40:08;;;;;;;6.57;5.50;;;8.90;99.90;;;;;;5031730;28;20416;-65
2022/11/07 04:42:34;;;;;;;8.10;6.37;;;8.90;99.90;;;;;;5032140;28;20423;-66
2022/11/07 04:44:59;;;;;;;8.10;6.10;;;8.90;99.90;;;;;;5032054;28;20459;-66
2022/11/07 04:47:25;;;;;;;10.30;6.30;;;8.90;99.90;;;;;;5032216;28;20670;-68
2022/11/07 04:49:50;;;;;;;6.63;5.13;;;8.90;99.90;;;;;;5032026;28;20165;-68
2022/11/07 04:52:16;;;;;;;9.80;6.00;;;8.90;99.90;;;;;;5036239;28;20180;-65
2022/11/07 04:54:41;;;;;;;5.97;4.80;;;8.90;99.90;;;;;;5031963;28;20182;-65
2022/11/07 04:57:07;;;;;;;7.67;5.50;;;8.90;99.90;;;;;;5032462;28;20284;-66
2022/11/07 04:59:32;;;;;;;8.00;5.97;;;8.90;99.90;;;;;;5033065;28;20636;-66
2022/11/07 05:01:58;;;;;;;5.37;4.87;;;8.90;99.90;;;;;;5032194;28;20166;-66
2022/11/07 05:04:23;;;;;;;5.60;4.70;;;8.90;99.90;;;;;;5031447;28;20208;-65
2022/11/07 05:06:49;;;;;;;6.20;5.47;;;8.90;99.90;;;;;;5030142;28;20172;-66
2022/11/07 05:09:16;;;;;;;6.37;5.00;;;8.90;99.90;;;;;;5032383;28;20168;-65
2022/11/07 05:11:45;;;;;;;5.87;4.87;;;9.00;99.90;;;;;;5032456;28;20169;-67
2022/11/07 05:14:11;;;;;;;5.93;4.63;;;9.00;99.90;;;;;;5032831;28;20435;-63
2022/11/07 05:16:38;;;;;;;7.97;5.63;;;9.00;99.90;;;;;;5035767;28;20406;-64
2022/11/07 05:19:03;;;;;;;8.00;5.57;;;8.90;99.90;;;;;;5035937;28;20836;-65
2022/11/07 05:21:29;;;;;;;6.33;5.00;;;9.00;99.90;;;;;;5035878;28;20403;-65
2022/11/07 05:23:54;;;;;;;6.63;5.80;;;9.00;99.90;;;;;;5035644;28;20197;-65
2022/11/07 05:26:20;;;;;;;6.57;5.47;;;9.00;99.90;;;;;;5034309;28;20266;-65
2022/11/07 05:28:45;;;;;;;6.10;5.13;;;9.00;99.90;;;;;;5050264;28;20260;-65
2022/11/07 05:31:15;;;;;;;7.23;5.40;;;9.00;99.90;;;;;;5055396;28;20509;-66
2022/11/07 05:33:41;;;;;;;6.40;5.10;;;9.00;99.90;;;;;;5055186;28;20207;-65
2022/11/07 05:36:11;;;;;;;6.27;5.33;;;9.00;99.90;;;;;;5055257;28;20417;-65
2022/11/07 05:38:39;;;;;;;8.53;5.37;;;9.00;99.90;;;;;;5037644;28;20504;-65
2022/11/07 05:41:04;;;;;;;6.87;4.73;;;9.00;99.90;;;;;;5055400;28;20547;-65
2022/11/07 05:43:30;;;;;;;7.97;5.80;;;9.00;99.90;;;;;;5034806;28;20497;-65
2022/11/07 05:46:00;;;;;;;6.27;4.53;;;9.00;99.90;;;;;;5034877;28;20165;-64
2022/11/07 05:48:25;;;;;;;7.87;4.33;;;9.00;99.90;;;;;;5034716;28;20173;-66
2022/11/07 05:50:51;;;;;;;5.40;4.20;;;9.00;99.90;;;;;;5034585;28;20900;-65
2022/11/07 05:53:19;;;;;;;7.63;4.47;;;9.00;99.90;;;;;;5034552;28;20230;-66
2022/11/07 05:55:45;;;;;;;6.93;5.53;;;9.00;99.90;;;;;;5035472;28;20163;-66
2022/11/07 05:58:11;;;;;;;6.00;4.60;;;9.00;99.90;;;;;;5034912;28;20451;-66
2022/11/07 06:00:38;;;;;;;8.50;5.13;;;9.00;99.90;;;;;;5032895;28;20982;-65
2022/11/07 06:03:03;;;;;;;7.67;5.37;;;9.00;99.90;;;;;;5035138;28;20901;-65
2022/11/07 06:05:29;;;;;;;6.13;5.53;;;9.00;99.90;;;;;;5034785;28;20417;-65
2022/11/07 06:07:55;;;;;;;7.83;5.37;;;9.00;99.90;;;;;;5034075;28;20519;-65
2022/11/07 06:10:21;;;;;;;9.93;4.80;;;9.00;99.90;;;;;;5034379;28;20169;-64
2022/11/07 06:12:46;;;;;;;6.20;4.50;;;9.10;99.90;;;;;;5033635;28;20851;-65
2022/11/07 06:15:12;;;;;;;6.73;4.60;;;9.10;99.90;;;;;;5031416;28;20434;-66
2022/11/07 06:17:37;;;;;;;6.60;4.60;;;9.10;99.90;;;;;;5039674;28;20169;-65
2022/11/07 06:20:04;;;;;;;6.13;5.47;;;9.10;99.90;;;;;;5054089;28;20547;-66
2022/11/07 06:22:30;;;;;;;6.23;4.60;;;9.10;99.90;;;;;;5053795;28;20652;-66
2022/11/07 06:24:56;;;;;;;5.77;4.50;;;9.10;99.90;;;;;;5042619;28;20523;-65
2022/11/07 06:27:22;;;;;;;9.40;4.90;;;9.10;99.90;;;;;;5033874;28;20448;-65
2022/11/07 06:29:47;;;;;;;5.50;4.30;;;9.10;99.90;;;;;;5032587;28;20963;-65
2022/11/07 06:32:13;;;;;;;7.00;4.20;;;9.10;99.90;;;;;;5034044;28;20227;-65
2022/11/07 06:34:38;;;;;;;10.23;5.43;;;9.10;99.90;;;;;;5033813;28;20182;-65
2022/11/07 06:37:04;;;;;;;6.87;5.23;;;9.20;99.90;;;;;;5033796;28;20190;-65
2022/11/07 06:39:29;;;;;;;4.60;4.20;;;9.20;99.90;;;;;;5033803;28;20267;-65
2022/11/07 06:41:55;;;;;;;5.40;4.90;;;9.20;99.90;;;;;;5033379;28;20180;-65
2022/11/07 06:44:20;;;;;;;6.20;4.53;;;9.20;99.90;;;;;;5033503;28;20203;-65
2022/11/07 06:46:46;;;;;;;6.00;4.73;;;9.20;99.90;;;;;;5031441;28;20181;-65
2022/11/07 06:49:13;;;;;;;6.90;4.87;;;9.20;99.90;;;;;;5033239;28;20546;-65
2022/11/07 06:51:38;;;;;;;10.53;6.63;;;9.20;99.90;;;;;;5033348;28;20159;-66
2022/11/07 06:54:04;;;;;;;7.50;4.87;;;9.30;99.90;;;;;;5033283;28;20429;-65
2022/11/07 06:56:29;;;;;;;5.10;4.60;;;9.30;99.90;;;;;;5033263;28;20173;-65
2022/11/07 06:58:55;;;;;;;5.33;3.47;;;9.30;99.90;;;;;;5033359;28;20180;-66
2022/11/07 07:01:20;;;;;;;7.90;4.90;;;9.30;99.90;;;;;;5033487;28;20174;-65
2022/11/07 07:03:46;;;;;;;4.80;4.37;;;9.40;99.90;;;;;;5033869;28;20641;-64
2022/11/07 07:06:14;;;;;;;5.60;3.70;;;9.40;99.90;;;;;;5053005;28;20643;-65
2022/11/07 07:08:40;;;;;;;5.80;5.13;;;9.40;99.90;;;;;;5053462;28;20159;-66
2022/11/07 07:11:08;;;;;;;6.57;4.67;;;9.50;99.90;;;;;;5035002;28;20473;-66
2022/11/07 07:13:34;;;;;;;9.13;5.30;;;9.50;99.90;;;;;;5052756;28;20463;-66
2022/11/07 07:16:00;;;;;;;8.03;5.00;;;9.50;99.90;;;;;;5052581;28;20444;-66
2022/11/07 07:18:26;;;;;;;7.13;4.40;;;9.50;99.90;;;;;;5049213;28;20171;-66
2022/11/07 07:21:04;;;;;;;8.93;5.07;;;9.50;99.90;;;;;;5043562;28;20437;-67
2022/11/07 07:23:30;;;;;;;8.07;5.40;;;9.60;99.90;;;;;;5052103;28;20457;-66
2022/11/07 07:25:55;;;;;;;8.83;4.23;;;9.60;99.90;;;;;;5036465;28;20922;-66
2022/11/07 07:28:21;;;;;;;6.33;4.40;;;9.70;99.90;;;;;;5032242;28;20424;-66
2022/11/07 07:30:46;;;;;;;6.20;4.27;;;9.70;99.90;;;;;;5031882;28;20212;-67
2022/11/07 07:33:12;;;;;;;9.60;5.10;;;9.70;99.90;;;;;;5039282;28;20293;-66
2022/11/07 07:35:37;;;;;;;5.60;4.70;;;9.80;99.90;;;;;;5032278;28;20177;-66
2022/11/07 07:38:03;;;;;;;6.17;4.03;;;9.80;99.90;;;;;;5016394;28;20182;-66
2022/11/07 07:40:29;;;;;;;5.43;3.50;;;9.90;99.90;;;;;;5033232;28;20586;-66
2022/11/07 07:42:55;;;;;;;5.90;4.37;;;9.90;99.90;;;;;;5018815;28;20187;-66
2022/11/07 07:45:20;;;;;;;5.07;3.43;;;9.90;99.90;;;;;;5024800;28;20450;-66
2022/11/07 07:47:46;;;;;;;6.30;3.93;;;10.00;99.90;;;;;;5032061;28;20182;-66
2022/11/07 07:50:12;;;;;;;6.57;4.40;;;10.00;99.90;;;;;;5032100;28;20164;-66
2022/11/07 07:52:37;;;;;;;3.27;2.87;;;10.00;99.90;;;;;;5030069;28;20191;-71
2022/11/07 07:55:06;;;;;;;3.80;3.33;;;10.20;99.90;;;;;;5021817;28;20438;-70
2022/11/07 07:57:37;;;;;;;6.30;4.03;;;10.10;99.90;;;;;;5022487;28;20275;-72
2022/11/07 08:00:03;;;;;;;4.10;3.53;;;10.10;99.90;;;;;;5029248;28;20417;-66
2022/11/07 08:02:29;;;;;;;4.00;3.33;;;10.10;99.90;;;;;;5030150;28;20438;-68
2022/11/07 08:04:54;;;;;;;4.50;4.10;;;10.20;99.90;;;;;;5031188;28;20583;-68
2022/11/07 08:07:20;;;;;;;4.17;3.50;;;10.90;99.90;;;;;;5031151;28;20225;-66
2022/11/07 08:09:45;;;;;;;4.00;3.60;;;11.40;99.90;;;;;;5034529;28;20692;-66
2022/11/07 08:12:11;;;;;;;4.40;3.90;;;11.80;99.90;;;;;;5048075;28;20163;-65
2022/11/07 08:14:36;;;;;;;7.80;4.80;;;11.80;99.90;;;;;;5030982;28;20252;-65
2022/11/07 08:17:02;;;;;;;3.10;2.70;;;11.40;99.90;;;;;;5039002;28;20176;-66
2022/11/07 08:19:28;;;;;;;10.20;4.33;;;11.00;99.90;;;;;;5031052;28;20229;-66
2022/11/07 08:21:53;;;;;;;4.40;3.37;;;11.00;99.90;;;;;;5030337;28;20427;-65
2022/11/07 08:24:19;;;;;;;4.83;3.10;;;10.90;99.90;;;;;;5030258;28;20203;-65
2022/11/07 08:26:44;;;;;;;5.37;2.80;;;11.20;99.90;;;;;;5030841;28;20199;-66
2022/11/07 08:29:10;;;;;;;3.63;3.20;;;11.60;99.90;;;;;;5040538;28;20172;-65
2022/11/07 08:31:35;;;;;;;3.63;2.63;;;12.10;99.90;;;;;;5030951;28;20176;-66
2022/11/07 08:34:01;;;;;;;5.43;2.93;;;12.30;99.90;;;;;;5031531;28;20582;-66
2022/11/07 08:36:27;;;;;;;4.60;2.47;;;12.70;99.90;;;;;;5029838;28;20183;-66
2022/11/07 08:38:53;;;;;;;3.03;2.70;;;12.90;99.90;;;;;;5033346;28;20187;-66
2022/11/07 08:41:19;;;;;;;2.97;2.70;;;12.80;99.90;;;;;;5029512;28;20191;-66
2022/11/07 08:43:45;;;;;;;3.63;2.17;;;13.10;99.90;;;;;;5029918;28;20458;-66
2022/11/07 08:46:10;;;;;;;4.27;3.87;;;13.30;99.90;;;;;;5030608;28;20414;-66
2022/11/07 08:48:36;;;;;;;2.50;2.17;;;13.50;99.90;;;;;;5032684;28;20959;-70
2022/11/07 08:51:02;;;;;;;4.07;2.30;;;13.20;99.90;;;;;;5038774;28;20179;-66
2022/11/07 08:53:28;;;;;;;2.10;1.90;;;12.70;99.90;;;;;;5033790;28;20222;-66
2022/11/07 08:56:02;;;;;;;3.67;3.20;;;12.30;99.90;;;;;;5035857;28;20182;-71
2022/11/07 08:58:28;;;;;;;3.00;2.57;;;12.00;99.90;;;;;;5034544;28;20454;-66
2022/11/07 09:00:53;;;;;;;4.23;2.87;;;12.00;99.90;;;;;;5034365;28;20426;-66
2022/11/07 09:03:19;;;;;;;2.43;2.23;;;11.90;99.90;;;;;;5034407;28;20206;-66
2022/11/07 09:05:44;;;;;;;2.93;2.17;;;11.80;99.90;;;;;;5034502;28;20174;-66
2022/11/07 09:08:10;;;;;;;2.70;1.70;;;11.90;99.90;;;;;;5034753;28;20163;-66
2022/11/07 09:10:35;;;;;;;2.40;2.17;;;11.90;99.90;;;;;;5029511;28;20198;-65
2022/11/07 09:13:01;;;;;;;2.93;2.23;;;11.90;99.90;;;;;;5033431;28;20195;-65
2022/11/07 09:15:27;;;;;;;2.40;2.20;;;11.90;99.90;;;;;;5029636;28;20187;-65
2022/11/07 09:17:53;;;;;;;2.80;2.00;;;11.90;99.90;;;;;;5028512;28;20197;-65
2022/11/07 09:20:18;;;;;;;2.03;1.83;;;11.90;99.90;;;;;;5027182;28;20437;-65
2022/11/07 09:22:44;;;;;;;3.50;2.20;;;11.90;99.90;;;;;;5022825;28;20286;-65
2022/11/07 09:25:10;;;;;;;4.63;1.97;;;11.90;99.90;;;;;;5024406;28;20241;-65
2022/11/07 09:27:36;;;;;;;2.70;1.97;;;12.10;99.90;;;;;;5023430;28;20729;-65
2022/11/07 09:30:03;;;;;;;1.93;1.50;;;12.10;99.90;;;;;;5024405;28;20168;-65
2022/11/07 09:32:28;;;;;;;3.83;2.10;;;12.10;99.90;;;;;;5023710;28;20199;-65
2022/11/07 09:34:54;;;;;;;3.77;1.90;;;12.30;99.90;;;;;;5023940;28;20417;-65
2022/11/07 09:37:20;;;;;;;2.93;2.30;;;12.40;99.90;;;;;;5023763;28;20180;-66
2022/11/07 09:39:46;;;;;;;2.00;1.90;;;12.60;99.90;;;;;;5026581;28;20174;-65
2022/11/07 09:42:19;;;;;;;4.63;1.90;;;12.70;99.90;;;;;;5024642;28;20509;-65
2022/11/07 09:44:52;;;;;;;1.63;1.53;;;12.70;99.90;;;;;;5023409;28;20461;-65
2022/11/07 09:47:25;;;;;;;3.60;1.90;;;12.70;99.90;;;;;;5023331;28;20889;-67
2022/11/07 09:49:58;;;;;;;2.73;1.67;;;12.80;99.90;;;;;;5026975;28;20448;-65
2022/11/07 09:52:30;;;;;;;3.03;2.20;;;12.90;99.90;;;;;;5032229;28;20430;-66
2022/11/07 09:55:01;;;;;;;1.97;1.67;;;12.90;99.90;;;;;;5043240;28;20421;-67
2022/11/07 09:57:32;;;;;;;3.80;2.20;;;12.90;99.90;;;;;;5043182;28;20421;-65
2022/11/07 10:00:02;;;;;;;4.97;2.60;;;13.10;99.90;;;;;;5042334;28;20476;-67
2022/11/07 10:02:32;;;;;;;2.17;1.87;;;13.30;99.90;;;;;;5027229;28;20434;-65
2022/11/07 10:05:01;;;;;;;4.47;2.87;;;13.40;99.90;;;;;;5005770;28;20468;-66
2022/11/07 10:07:40;;;;;;;4.33;2.53;;;13.50;99.90;;;;;;5023187;28;20984;-66
2022/11/07 10:10:22;;;;;;;5.60;2.90;;;13.40;99.90;;;;;;5024377;28;20418;-66
2022/11/07 10:13:32;;;;;;;4.60;2.03;;;13.20;99.90;;;;;;5023079;28;20918;-66
2022/11/07 10:16:00;;;;;;;2.77;1.90;;;13.10;99.90;;;;;;5007655;28;20428;-66
2022/11/07 10:18:51;;;;;;;2.50;1.87;;;13.10;99.90;;;;;;5031482;28;20418;-65
2022/11/07 10:21:43;;;;;;;2.70;1.70;;;13.10;99.90;;;;;;5028042;28;20507;-65
2022/11/07 10:24:43;;;;;;;4.60;2.07;;;13.00;99.90;;;;;;5030965;28;20929;-65
2022/11/07 10:27:10;;;;;;;2.73;2.03;;;13.10;99.90;;;;;;5052785;28;20402;-65
2022/11/07 10:29:45;;;;;;;1.53;1.40;;;13.10;99.90;;;;;;5057814;28;20408;-65
2022/11/07 10:32:23;;;;;;;3.13;1.63;;;13.10;99.90;;;;;;5029958;28;20414;-65
2022/11/07 10:34:54;;;;;;;3.40;1.83;;;13.10;99.90;;;;;;5035967;28;20413;-65
2022/11/07 10:37:20;;;;;;;2.97;1.70;;;13.20;99.90;;;;;;5035677;28;20493;-66
2022/11/07 10:39:45;;;;;;;2.00;1.83;;;13.20;99.90;;;;;;5033023;28;20489;-66
2022/11/07 10:42:25;;;;;;;1.30;1.20;;;13.30;99.90;;;;;;5033002;28;20168;-66
2022/11/07 10:44:52;;;;;;;3.00;2.47;;;13.30;99.90;;;;;;5033029;28;20195;-65
2022/11/07 10:47:24;;;;;;;2.63;1.60;;;13.30;99.90;;;;;;5033210;28;20410;-66
2022/11/07 10:50:01;;;;;;;10.17;1.87;;;13.30;99.90;;;;;;5017163;28;20413;-66
2022/11/07 10:52:28;;;;;;;3.03;1.00;;;13.40;99.90;;;;;;5032423;28;20426;-66
2022/11/07 10:55:16;;;;;;;1.60;1.43;;;13.40;99.90;;;;;;5023642;28;20915;-66
2022/11/07 10:57:43;;;;;;;3.47;1.90;;;13.40;99.90;;;;;;5031709;28;20806;-65
2022/11/07 11:00:28;;;;;;;2.60;1.57;;;13.50;99.90;;;;;;5032331;28;20417;-65
2022/11/07 11:02:55;;;;;;;1.80;1.50;;;13.50;99.90;;;;;;5025623;28;20435;-66
2022/11/07 11:05:23;;;;;;;2.43;1.30;;;13.50;99.90;;;;;;5013092;28;20454;-69
2022/11/07 11:07:49;;;;;;;3.07;1.70;;;13.60;99.90;;;;;;5014745;28;20886;-66
2022/11/07 11:10:24;;;;;;;2.23;1.60;;;13.70;99.90;;;;;;5032224;28;20468;-66
2022/11/07 11:12:50;;;;;;;8.40;1.70;;;13.70;99.90;;;;;;5031970;28;20814;-67
2022/11/07 11:15:18;;;;;;;1.30;1.20;;;13.80;99.90;;;;;;5045947;28;20447;-66
2022/11/07 11:17:44;;;;;;;2.50;1.30;;;13.80;99.90;;;;;;5031089;28;20184;-66
2022/11/07 11:20:30;;;;;;;6.77;1.90;;;13.90;99.90;;;;;;5038306;28;20417;-66
2022/11/07 11:22:58;;;;;;;3.17;2.87;;;13.90;99.90;;;;;;5050049;28;20421;-66
2022/11/07 11:25:24;;;;;;;1.63;1.40;;;13.90;99.90;;;;;;5028272;28;20922;-65
2022/11/07 11:27:56;;;;;;;4.77;1.80;;;13.90;99.90;;;;;;5038362;28;20548;-65
2022/11/07 11:30:23;;;;;;;2.20;2.07;;;13.90;99.90;;;;;;5022387;28;20176;-65
2022/11/07 11:33:23;;;;;;;2.17;1.67;;;14.00;99.90;;;;;;5031834;28;20809;-65
2022/11/07 11:35:55;;;;;;;3.97;1.43;;;13.90;99.90;;;;;;5031876;28;20430;-66
2022/11/07 11:38:36;;;;;;;6.40;2.53;;;13.90;99.90;;;;;;5031870;28;20398;-65
2022/11/07 11:41:09;;;;;;;2.20;1.23;;;13.80;99.90;;;;;;5031501;28;20403;-65
2022/11/07 11:43:45;;;;;;;2.57;1.60;;;13.80;99.90;;;;;;5042338;28;20449;-66
2022/11/07 11:46:29;;;;;;;1.20;1.10;;;13.90;99.90;;;;;;5031933;28;20906;-66
2022/11/07 11:49:04;;;;;;;3.27;1.57;;;13.90;99.90;;;;;;5032017;28;20952;-65
2022/11/07 11:51:55;;;;;;;3.73;1.60;;;14.00;99.90;;;;;;5029467;28;20449;-65
2022/11/07 11:54:21;;;;;;;1.87;1.60;;;14.10;99.90;;;;;;5051371;28;20429;-65
2022/11/07 11:56:59;;;;;;;5.40;2.13;;;14.20;99.90;;;;;;5051184;28;20429;-66
2022/11/07 12:00:13;;;;;;;1.57;1.47;;;14.20;99.90;;;;;;5044497;28;20716;-65
2022/11/07 12:02:39;;;;;;;2.27;1.30;;;14.20;99.90;;;;;;5016182;28;20496;-65
2022/11/07 12:05:11;;;;;;;4.97;1.70;;;14.20;99.90;;;;;;5030695;28;21275;-65
2022/11/07 12:08:08;;;;;;;3.53;1.60;;;14.20;99.90;;;;;;5028289;28;20179;-65
2022/11/07 12:10:57;;;;;;;1.90;1.33;;;14.20;99.90;;;;;;5028361;28;20418;-65
2022/11/07 12:13:53;;;;;;;2.13;1.50;;;14.20;99.90;;;;;;5005900;28;20521;-65
2022/11/07 12:16:46;;;;;;;4.90;1.87;;;14.30;99.90;;;;;;5030232;28;20410;-65
2022/11/07 12:19:49;;;;;;;1.27;1.07;;;14.30;99.90;;;;;;5034257;28;20418;-65
2022/11/07 12:22:46;;;;;;;2.13;1.20;;;14.40;99.90;;;;;;5036989;28;20412;-64
2022/11/07 12:25:39;;;;;;;2.20;1.20;;;14.40;99.90;;;;;;5050576;28;20989;-65
2022/11/07 12:28:29;;;;;;;1.57;1.00;;;14.40;99.90;;;;;;5022999;28;20503;-65
2022/11/07 12:31:01;;;;;;;1.90;1.23;;;14.40;99.90;;;;;;5050426;28;20450;-65
2022/11/07 12:33:40;;;;;;;2.33;1.50;;;14.40;99.90;;;;;;5038857;28;20974;-66
2022/11/07 12:36:15;;;;;;;5.33;2.10;;;14.50;99.90;;;;;;5016333;28;20394;-66
2022/11/07 12:39:11;;;;;;;4.07;1.70;;;14.60;99.90;;;;;;5030377;28;20775;-65
2022/11/07 12:41:53;;;;;;;2.93;1.93;;;14.60;99.90;;;;;;5030099;28;20902;-65
2022/11/07 12:44:19;;;;;;;1.93;1.37;;;14.60;99.90;;;;;;5030176;28;20461;-66
2022/11/07 12:46:50;;;;;;;2.10;1.40;;;14.70;99.90;;;;;;5030575;28;20411;-64
2022/11/07 12:49:18;;;;;;;3.33;1.40;;;14.70;99.90;;;;;;5030300;28;20167;-64
2022/11/07 12:51:50;;;;;;;2.20;1.57;;;14.60;99.90;;;;;;5029793;28;20405;-65
2022/11/07 12:54:37;;;;;;;2.80;1.50;;;14.50;99.90;;;;;;5030070;28;20937;-66
2022/11/07 12:57:13;;;;;;;6.00;2.30;;;14.50;99.90;;;;;;5029854;28;20788;-66
2022/11/07 12:59:43;;;;;;;2.57;1.73;;;14.40;99.90;;;;;;5011811;28;20427;-66
2022/11/07 13:02:32;;;;;;;2.37;1.50;;;14.40;99.90;;;;;;5030067;28;20462;-66
2022/11/07 13:05:19;;;;;;;1.93;1.60;;;14.40;99.90;;;;;;5019293;28;20458;-65
2022/11/07 13:07:53;;;;;;;4.27;1.60;;;14.40;99.90;;;;;;5030314;28;20403;-66
2022/11/07 13:10:28;;;;;;;2.07;1.20;;;14.40;99.90;;;;;;5014495;28;20501;-65